sensor_id;sensor_type;location;lat;lon;timestamp;pressure;altitude;pressure_sealevel;temperature;humidity
818;BME280;391;51.052;6.954;2023-07-29T00:00:02;100116.91;;;19.37;100.00
818;BME280;391;51.052;6.954;2023-07-29T00:02:13;100117.88;;;19.33;100.00
818;BME280;391;51.052;6.954;2023-07-29T00:04:18;100113.53;;;19.30;100.00
818;BME280;391;51.052;6.954;2023-07-29T00:06:23;100109.13;;;19.29;100.00
818;BME280;391;51.052;6.954;2023-07-29T00:08:27;100108.25;;;19.29;100.00
818;BME280;391;51.052;6.954;2023-07-29T00:10:31;100103.03;;;19.26;100.00
818;BME280;391;51.052;6.954;2023-07-29T00:12:35;100101.16;;;19.31;100.00
818;BME280;391;51.052;6.954;2023-07-29T00:14:38;100103.81;;;19.31;100.00
818;BME280;391;51.052;6.954;2023-07-29T00:16:41;100101.31;;;19.22;100.00
818;BME280;391;51.052;6.954;2023-07-29T00:18:45;100098.72;;;19.19;100.00
818;BME280;391;51.052;6.954;2023-07-29T00:20:49;100085.56;;;19.17;100.00
818;BME280;391;51.052;6.954;2023-07-29T00:22:53;100096.19;;;19.13;100.00
818;BME280;391;51.052;6.954;2023-07-29T00:24:57;100070.91;;;18.98;100.00
818;BME280;391;51.052;6.954;2023-07-29T00:27:01;100083.03;;;19.10;100.00
818;BME280;391;51.052;6.954;2023-07-29T00:29:03;100088.31;;;19.10;100.00
818;BME280;391;51.052;6.954;2023-07-29T00:31:07;100083.84;;;19.12;100.00
818;BME280;391;51.052;6.954;2023-07-29T00:33:10;100081.25;;;19.10;100.00
818;BME280;391;51.052;6.954;2023-07-29T00:35:14;100082.19;;;19.06;100.00
818;BME280;391;51.052;6.954;2023-07-29T00:37:18;100084.06;;;19.01;100.00
818;BME280;391;51.052;6.954;2023-07-29T00:39:21;100083.97;;;19.06;100.00
818;BME280;391;51.052;6.954;2023-07-29T00:41:26;100090.13;;;19.08;100.00
818;BME280;391;51.052;6.954;2023-07-29T00:43:29;100089.28;;;19.04;100.00
818;BME280;391;51.052;6.954;2023-07-29T00:45:34;100058.72;;;18.86;100.00
818;BME280;391;51.052;6.954;2023-07-29T00:47:38;100092.00;;;18.99;100.00
818;BME280;391;51.052;6.954;2023-07-29T00:49:42;100087.56;;;19.01;100.00
818;BME280;391;51.052;6.954;2023-07-29T00:51:46;100077.69;;;19.13;100.00
818;BME280;391;51.052;6.954;2023-07-29T00:53:51;100075.81;;;19.18;100.00
818;BME280;391;51.052;6.954;2023-07-29T00:55:55;100079.28;;;19.23;100.00
818;BME280;391;51.052;6.954;2023-07-29T00:57:58;100088.09;;;19.23;100.00
818;BME280;391;51.052;6.954;2023-07-29T01:00:03;100085.41;;;19.26;100.00
818;BME280;391;51.052;6.954;2023-07-29T01:02:07;100079.25;;;19.24;100.00
818;BME280;391;51.052;6.954;2023-07-29T01:04:11;100073.09;;;19.24;100.00
818;BME280;391;51.052;6.954;2023-07-29T01:06:21;100067.00;;;19.20;100.00
818;BME280;391;51.052;6.954;2023-07-29T01:08:33;100059.06;;;19.19;100.00
818;BME280;391;51.052;6.954;2023-07-29T01:10:47;100062.59;;;19.18;100.00
818;BME280;391;51.052;6.954;2023-07-29T01:12:58;100061.72;;;19.19;100.00
818;BME280;391;51.052;6.954;2023-07-29T01:15:10;100060.84;;;19.18;100.00
818;BME280;391;51.052;6.954;2023-07-29T01:17:17;100060.88;;;19.17;100.00
818;BME280;391;51.052;6.954;2023-07-29T01:21:55;100054.78;;;19.13;100.00
818;BME280;391;51.052;6.954;2023-07-29T01:24:00;100048.59;;;19.14;100.00
818;BME280;391;51.052;6.954;2023-07-29T01:26:04;100045.91;;;19.16;100.00
818;BME280;391;51.052;6.954;2023-07-29T01:28:08;100042.50;;;19.11;100.00
818;BME280;391;51.052;6.954;2023-07-29T01:30:12;100042.50;;;19.11;100.00
818;BME280;391;51.052;6.954;2023-07-29T01:32:25;100046.84;;;19.12;100.00
818;BME280;391;51.052;6.954;2023-07-29T01:34:35;100050.44;;;19.09;100.00
818;BME280;391;51.052;6.954;2023-07-29T01:36:43;100056.59;;;19.10;100.00
818;BME280;391;51.052;6.954;2023-07-29T01:38:49;100057.47;;;19.10;100.00
818;BME280;391;51.052;6.954;2023-07-29T01:40:58;100048.66;;;19.10;100.00
818;BME280;391;51.052;6.954;2023-07-29T01:43:04;100053.97;;;19.08;100.00
818;BME280;391;51.052;6.954;2023-07-29T01:45:09;100048.66;;;19.10;100.00
818;BME280;391;51.052;6.954;2023-07-29T01:47:14;100048.66;;;19.10;100.00
818;BME280;391;51.052;6.954;2023-07-29T01:49:17;100045.16;;;19.09;100.00
818;BME280;391;51.052;6.954;2023-07-29T01:51:20;100042.56;;;19.08;100.00
818;BME280;391;51.052;6.954;2023-07-29T01:53:24;100028.31;;;19.15;100.00
818;BME280;391;51.052;6.954;2023-07-29T01:55:29;100041.69;;;19.06;100.00
818;BME280;391;51.052;6.954;2023-07-29T01:57:34;99933.53;;;18.43;100.00
818;BME280;391;51.052;6.954;2023-07-29T01:59:37;100044.44;;;18.99;100.00
818;BME280;391;51.052;6.954;2023-07-29T02:01:40;100037.53;;;18.91;100.00
818;BME280;391;51.052;6.954;2023-07-29T02:03:44;100035.03;;;18.82;100.00
818;BME280;391;51.052;6.954;2023-07-29T02:05:48;100040.38;;;18.77;100.00
818;BME280;391;51.052;6.954;2023-07-29T02:07:51;100053.63;;;18.76;100.00
818;BME280;391;51.052;6.954;2023-07-29T02:09:55;100043.03;;;18.77;100.00
818;BME280;391;51.052;6.954;2023-07-29T02:11:58;100053.69;;;18.73;100.00
818;BME280;391;51.052;6.954;2023-07-29T02:14:02;100036.09;;;18.72;100.00
818;BME280;391;51.052;6.954;2023-07-29T02:16:05;100035.94;;;18.82;100.00
818;BME280;391;51.052;6.954;2023-07-29T02:18:09;100034.28;;;18.75;100.00
818;BME280;391;51.052;6.954;2023-07-29T02:20:12;100026.25;;;18.81;100.00
818;BME280;391;51.052;6.954;2023-07-29T02:22:16;100024.28;;;18.92;100.00
818;BME280;391;51.052;6.954;2023-07-29T02:24:20;100016.41;;;18.91;100.00
818;BME280;391;51.052;6.954;2023-07-29T02:26:24;100020.97;;;18.81;100.00
818;BME280;391;51.052;6.954;2023-07-29T02:28:28;100037.75;;;18.77;100.00
818;BME280;391;51.052;6.954;2023-07-29T02:30:33;100037.69;;;18.80;100.00
818;BME280;391;51.052;6.954;2023-07-29T02:32:36;100010.59;;;18.68;100.00
818;BME280;391;51.052;6.954;2023-07-29T02:34:39;100034.16;;;18.81;100.00
818;BME280;391;51.052;6.954;2023-07-29T02:36:42;100019.22;;;18.80;100.00
818;BME280;391;51.052;6.954;2023-07-29T02:38:47;100027.94;;;18.85;100.00
818;BME280;391;51.052;6.954;2023-07-29T02:40:51;100025.25;;;18.87;100.00
818;BME280;391;51.052;6.954;2023-07-29T02:42:54;100020.06;;;18.82;100.00
818;BME280;391;51.052;6.954;2023-07-29T02:44:58;100017.44;;;18.81;100.00
818;BME280;391;51.052;6.954;2023-07-29T02:47:03;100025.34;;;18.82;100.00
818;BME280;391;51.052;6.954;2023-07-29T02:49:06;100027.97;;;18.84;100.00
818;BME280;391;51.052;6.954;2023-07-29T02:51:10;100034.16;;;18.81;100.00
818;BME280;391;51.052;6.954;2023-07-29T02:53:13;100047.34;;;18.83;100.00
818;BME280;391;51.052;6.954;2023-07-29T02:55:17;100041.22;;;18.82;100.00
818;BME280;391;51.052;6.954;2023-07-29T02:57:20;100041.22;;;18.82;100.00
818;BME280;391;51.052;6.954;2023-07-29T02:59:24;100039.41;;;18.83;100.00
818;BME280;391;51.052;6.954;2023-07-29T03:01:27;100041.22;;;18.81;100.00
818;BME280;391;51.052;6.954;2023-07-29T03:03:32;100035.94;;;18.81;100.00
818;BME280;391;51.052;6.954;2023-07-29T03:05:35;100042.09;;;18.81;100.00
818;BME280;391;51.052;6.954;2023-07-29T03:07:39;100039.44;;;18.81;100.00
818;BME280;391;51.052;6.954;2023-07-29T03:09:43;100035.00;;;18.83;100.00
818;BME280;391;51.052;6.954;2023-07-29T03:11:47;100038.53;;;18.85;100.00
818;BME280;391;51.052;6.954;2023-07-29T03:13:50;100031.47;;;18.84;100.00
818;BME280;391;51.052;6.954;2023-07-29T03:15:54;100039.47;;;18.80;100.00
818;BME280;391;51.052;6.954;2023-07-29T03:17:56;100035.88;;;18.84;100.00
818;BME280;391;51.052;6.954;2023-07-29T03:20:01;100035.88;;;18.85;100.00
818;BME280;391;51.052;6.954;2023-07-29T03:22:04;100036.72;;;18.86;100.00
818;BME280;391;51.052;6.954;2023-07-29T03:24:09;100035.84;;;18.87;100.00
818;BME280;391;51.052;6.954;2023-07-29T03:26:12;100036.69;;;18.89;100.00
818;BME280;391;51.052;6.954;2023-07-29T03:28:16;100032.25;;;18.89;100.00
818;BME280;391;51.052;6.954;2023-07-29T03:30:20;100020.81;;;18.90;100.00
818;BME280;391;51.052;6.954;2023-07-29T03:32:25;100022.56;;;18.90;100.00
818;BME280;391;51.052;6.954;2023-07-29T03:34:28;100030.53;;;18.88;100.00
818;BME280;391;51.052;6.954;2023-07-29T03:36:33;100019.91;;;18.91;100.00
818;BME280;391;51.052;6.954;2023-07-29T03:38:37;100020.81;;;18.90;100.00
818;BME280;391;51.052;6.954;2023-07-29T03:40:43;100005.06;;;18.84;100.00
818;BME280;391;51.052;6.954;2023-07-29T03:42:46;100007.59;;;18.90;100.00
818;BME280;391;51.052;6.954;2023-07-29T03:44:49;100000.50;;;18.94;100.00
818;BME280;391;51.052;6.954;2023-07-29T03:46:52;100003.16;;;18.92;100.00
818;BME280;391;51.052;6.954;2023-07-29T03:48:55;100001.47;;;18.88;100.00
818;BME280;391;51.052;6.954;2023-07-29T03:50:59;99997.91;;;18.89;100.00
818;BME280;391;51.052;6.954;2023-07-29T03:53:04;100005.88;;;18.88;100.00
818;BME280;391;51.052;6.954;2023-07-29T03:55:07;100012.94;;;18.87;100.00
818;BME280;391;51.052;6.954;2023-07-29T03:57:11;100009.53;;;18.81;100.00
818;BME280;391;51.052;6.954;2023-07-29T03:59:15;100010.50;;;18.75;100.00
818;BME280;391;51.052;6.954;2023-07-29T04:01:18;100021.91;;;18.77;100.00
818;BME280;391;51.052;6.954;2023-07-29T04:03:22;100024.59;;;18.76;100.00
818;BME280;391;51.052;6.954;2023-07-29T04:05:27;100025.41;;;18.79;100.00
818;BME280;391;51.052;6.954;2023-07-29T04:07:31;100018.38;;;18.77;100.00
818;BME280;391;51.052;6.954;2023-07-29T04:09:36;100017.50;;;18.76;100.00
818;BME280;391;51.052;6.954;2023-07-29T04:11:39;100021.06;;;18.75;100.00
818;BME280;391;51.052;6.954;2023-07-29T04:13:43;100025.47;;;18.75;100.00
818;BME280;391;51.052;6.954;2023-07-29T04:15:46;100040.44;;;18.74;100.00
818;BME280;391;51.052;6.954;2023-07-29T04:17:53;100030.06;;;18.62;100.00
818;BME280;391;51.052;6.954;2023-07-29T04:19:58;100043.13;;;18.73;100.00
818;BME280;391;51.052;6.954;2023-07-29T04:22:07;100039.59;;;18.72;100.00
818;BME280;391;51.052;6.954;2023-07-29T04:24:10;100044.88;;;18.71;100.00
818;BME280;391;51.052;6.954;2023-07-29T04:26:15;100040.50;;;18.71;100.00
818;BME280;391;51.052;6.954;2023-07-29T04:28:18;100046.59;;;18.73;100.00
818;BME280;391;51.052;6.954;2023-07-29T04:30:22;100051.00;;;18.74;100.00
818;BME280;391;51.052;6.954;2023-07-29T04:32:26;100051.00;;;18.74;100.00
818;BME280;391;51.052;6.954;2023-07-29T04:34:30;100049.28;;;18.72;100.00
818;BME280;391;51.052;6.954;2023-07-29T04:36:34;100044.06;;;18.67;100.00
818;BME280;391;51.052;6.954;2023-07-29T04:38:37;100048.41;;;18.73;100.00
818;BME280;391;51.052;6.954;2023-07-29T04:40:41;100049.28;;;18.70;100.00
818;BME280;391;51.052;6.954;2023-07-29T04:42:46;100064.31;;;18.70;100.00
818;BME280;391;51.052;6.954;2023-07-29T04:44:49;100063.44;;;18.68;100.00
818;BME280;391;51.052;6.954;2023-07-29T04:46:52;100060.88;;;18.63;100.00
818;BME280;391;51.052;6.954;2023-07-29T04:48:56;100060.00;;;18.63;100.00
818;BME280;391;51.052;6.954;2023-07-29T04:50:59;100073.09;;;18.69;100.00
818;BME280;391;51.052;6.954;2023-07-29T04:53:03;100070.47;;;18.67;100.00
818;BME280;391;51.052;6.954;2023-07-29T04:55:07;100067.88;;;18.64;100.00
818;BME280;391;51.052;6.954;2023-07-29T04:57:10;100073.16;;;18.66;100.00
818;BME280;391;51.052;6.954;2023-07-29T04:59:15;100069.59;;;18.70;100.00
818;BME280;391;51.052;6.954;2023-07-29T05:01:19;100072.22;;;18.68;100.00
818;BME280;391;51.052;6.954;2023-07-29T05:03:22;100071.28;;;18.72;100.00
818;BME280;391;51.052;6.954;2023-07-29T05:05:26;100041.59;;;18.57;100.00
818;BME280;391;51.052;6.954;2023-07-29T05:07:31;100051.03;;;18.73;100.00
818;BME280;391;51.052;6.954;2023-07-29T05:09:35;100049.25;;;18.73;100.00
818;BME280;391;51.052;6.954;2023-07-29T05:11:38;100053.50;;;18.85;100.00
818;BME280;391;51.052;6.954;2023-07-29T05:13:42;100057.00;;;18.85;100.00
818;BME280;391;51.052;6.954;2023-07-29T05:15:48;100049.19;;;18.79;100.00
818;BME280;391;51.052;6.954;2023-07-29T05:17:52;100057.94;;;18.81;100.00
818;BME280;391;51.052;6.954;2023-07-29T05:19:55;100056.25;;;18.77;100.00
818;BME280;391;51.052;6.954;2023-07-29T05:21:58;100056.25;;;18.77;100.00
818;BME280;391;51.052;6.954;2023-07-29T05:24:02;100061.53;;;18.77;100.00
818;BME280;391;51.052;6.954;2023-07-29T05:26:06;100067.69;;;18.78;100.00
818;BME280;391;51.052;6.954;2023-07-29T05:28:10;100057.00;;;18.85;100.00
818;BME280;391;51.052;6.954;2023-07-29T05:30:13;100048.22;;;18.83;100.00
818;BME280;391;51.052;6.954;2023-07-29T05:32:18;100062.25;;;18.88;100.00
818;BME280;391;51.052;6.954;2023-07-29T05:34:23;100075.50;;;18.84;100.00
818;BME280;391;51.052;6.954;2023-07-29T05:36:26;100073.88;;;18.75;100.00
818;BME280;391;51.052;6.954;2023-07-29T05:38:30;100079.16;;;18.75;100.00
818;BME280;391;51.052;6.954;2023-07-29T05:40:33;100082.75;;;18.71;100.00
818;BME280;391;51.052;6.954;2023-07-29T05:42:37;100092.41;;;18.72;100.00
818;BME280;391;51.052;6.954;2023-07-29T05:44:40;100082.84;;;18.65;100.00
818;BME280;391;51.052;6.954;2023-07-29T05:46:44;100062.63;;;18.63;100.00
818;BME280;391;51.052;6.954;2023-07-29T05:48:49;100092.47;;;18.69;100.00
818;BME280;391;51.052;6.954;2023-07-29T05:50:52;100098.69;;;18.65;100.00
818;BME280;391;51.052;6.954;2023-07-29T05:52:55;100103.97;;;18.65;100.00
818;BME280;391;51.052;6.954;2023-07-29T05:54:59;100116.25;;;18.68;100.00
818;BME280;391;51.052;6.954;2023-07-29T05:57:04;100110.09;;;18.69;100.00
818;BME280;391;51.052;6.954;2023-07-29T05:59:08;100110.03;;;18.72;100.00
818;BME280;391;51.052;6.954;2023-07-29T06:01:11;100121.47;;;18.72;100.00
818;BME280;391;51.052;6.954;2023-07-29T06:03:14;100114.44;;;18.71;100.00
818;BME280;391;51.052;6.954;2023-07-29T06:05:19;100123.28;;;18.69;100.00
818;BME280;391;51.052;6.954;2023-07-29T06:07:23;100125.03;;;18.68;100.00
818;BME280;391;51.052;6.954;2023-07-29T06:09:30;100130.31;;;18.68;100.00
818;BME280;391;51.052;6.954;2023-07-29T06:11:33;100139.13;;;18.67;100.00
818;BME280;391;51.052;6.954;2023-07-29T06:13:36;100108.50;;;18.54;100.00
818;BME280;391;51.052;6.954;2023-07-29T06:15:40;100085.75;;;18.44;100.00
818;BME280;391;51.052;6.954;2023-07-29T06:17:42;100142.66;;;18.69;100.00
818;BME280;391;51.052;6.954;2023-07-29T06:19:46;100143.53;;;18.70;100.00
818;BME280;391;51.052;6.954;2023-07-29T06:21:51;100126.00;;;18.61;100.00
818;BME280;391;51.052;6.954;2023-07-29T06:23:58;100139.09;;;18.70;100.00
818;BME280;391;51.052;6.954;2023-07-29T06:26:02;100147.94;;;18.68;100.00
818;BME280;391;51.052;6.954;2023-07-29T06:28:06;100161.13;;;18.69;100.00
818;BME280;391;51.052;6.954;2023-07-29T06:30:09;100155.97;;;18.60;100.00
818;BME280;391;51.052;6.954;2023-07-29T06:32:13;100162.03;;;18.67;100.00
818;BME280;391;51.052;6.954;2023-07-29T06:34:17;100165.63;;;18.63;100.00
818;BME280;391;51.052;6.954;2023-07-29T06:36:20;100163.88;;;18.62;100.00
818;BME280;391;51.052;6.954;2023-07-29T06:38:25;100166.50;;;18.62;100.00
818;BME280;391;51.052;6.954;2023-07-29T06:40:28;100100.13;;;18.20;100.00
818;BME280;391;51.052;6.954;2023-07-29T06:42:31;100152.41;;;18.61;100.00
818;BME280;391;51.052;6.954;2023-07-29T06:44:34;100156.00;;;18.57;100.00
818;BME280;391;51.052;6.954;2023-07-29T06:46:37;100148.09;;;18.54;100.00
818;BME280;391;51.052;6.954;2023-07-29T06:48:42;100159.53;;;18.56;100.00
818;BME280;391;51.052;6.954;2023-07-29T06:50:45;100163.91;;;18.57;100.00
818;BME280;391;51.052;6.954;2023-07-29T06:52:48;100158.72;;;18.51;100.00
818;BME280;391;51.052;6.954;2023-07-29T06:54:53;100132.47;;;18.36;100.00
818;BME280;391;51.052;6.954;2023-07-29T06:56:57;100157.88;;;18.51;100.00
818;BME280;391;51.052;6.954;2023-07-29T06:59:00;100154.25;;;18.56;100.00
818;BME280;391;51.052;6.954;2023-07-29T07:01:04;100162.19;;;18.55;100.00
818;BME280;391;51.052;6.954;2023-07-29T07:03:07;100165.63;;;18.61;100.00
818;BME280;391;51.052;6.954;2023-07-29T07:05:11;100160.22;;;18.70;100.00
818;BME280;391;51.052;6.954;2023-07-29T07:07:15;100167.25;;;18.71;100.00
818;BME280;391;51.052;6.954;2023-07-29T07:09:19;100158.38;;;18.77;100.00
818;BME280;391;51.052;6.954;2023-07-29T07:11:22;100156.50;;;18.85;100.00
818;BME280;391;51.052;6.954;2023-07-29T07:13:26;100160.97;;;18.80;100.00
818;BME280;391;51.052;6.954;2023-07-29T07:15:29;100165.38;;;18.81;100.00
818;BME280;391;51.052;6.954;2023-07-29T07:17:33;100164.50;;;18.80;100.00
818;BME280;391;51.052;6.954;2023-07-29T07:19:37;100161.00;;;18.78;100.00
818;BME280;391;51.052;6.954;2023-07-29T07:21:40;100165.38;;;18.81;100.00
818;BME280;391;51.052;6.954;2023-07-29T07:23:44;100165.22;;;18.91;100.00
818;BME280;391;51.052;6.954;2023-07-29T07:25:47;100158.09;;;18.98;100.00
818;BME280;391;51.052;6.954;2023-07-29T07:27:52;100165.00;;;19.05;100.00
818;BME280;391;51.052;6.954;2023-07-29T07:29:55;100169.34;;;19.09;100.00
818;BME280;391;51.052;6.954;2023-07-29T07:31:59;100176.41;;;19.10;100.00
818;BME280;391;51.052;6.954;2023-07-29T07:34:02;100110.03;;;18.72;100.00
818;BME280;391;51.052;6.954;2023-07-29T07:36:06;100176.31;;;19.15;100.00
818;BME280;391;51.052;6.954;2023-07-29T07:38:09;100180.56;;;19.26;100.00
818;BME280;391;51.052;6.954;2023-07-29T07:40:12;100191.09;;;19.28;100.00
818;BME280;391;51.052;6.954;2023-07-29T07:42:16;100192.69;;;19.39;100.00
818;BME280;391;51.052;6.954;2023-07-29T07:44:20;100187.34;;;19.44;100.00
818;BME280;391;51.052;6.954;2023-07-29T07:46:24;100169.94;;;19.29;97.64
818;BME280;391;51.052;6.954;2023-07-29T07:48:26;100190.03;;;19.42;100.00
818;BME280;391;51.052;6.954;2023-07-29T07:50:31;100194.41;;;19.43;100.00
818;BME280;391;51.052;6.954;2023-07-29T07:52:34;100192.69;;;19.39;100.00
818;BME280;391;51.052;6.954;2023-07-29T07:54:37;100190.97;;;19.35;100.00
818;BME280;391;51.052;6.954;2023-07-29T07:56:42;100193.63;;;19.34;100.00
818;BME280;391;51.052;6.954;2023-07-29T07:58:46;100182.19;;;19.35;100.00
818;BME280;391;51.052;6.954;2023-07-29T08:00:50;100197.09;;;19.42;100.00
818;BME280;391;51.052;6.954;2023-07-29T08:02:54;100189.22;;;19.34;100.00
818;BME280;391;51.052;6.954;2023-07-29T08:04:57;100191.03;;;19.31;100.00
818;BME280;391;51.052;6.954;2023-07-29T08:07:01;100199.84;;;19.33;100.00
818;BME280;391;51.052;6.954;2023-07-29T08:09:04;100189.28;;;19.33;100.00
818;BME280;391;51.052;6.954;2023-07-29T08:11:08;100193.56;;;19.38;100.00
818;BME280;391;51.052;6.954;2023-07-29T08:13:11;100196.22;;;19.38;98.93
818;BME280;391;51.052;6.954;2023-07-29T08:15:14;100197.09;;;19.40;99.76
818;BME280;391;51.052;6.954;2023-07-29T08:17:19;100197.09;;;19.39;98.93
818;BME280;391;51.052;6.954;2023-07-29T08:19:24;100195.16;;;19.51;99.77
818;BME280;391;51.052;6.954;2023-07-29T08:21:31;100190.59;;;19.60;99.87
818;BME280;391;51.052;6.954;2023-07-29T08:23:35;100185.31;;;19.61;98.93
818;BME280;391;51.052;6.954;2023-07-29T08:25:39;100186.16;;;19.63;99.06
818;BME280;391;51.052;6.954;2023-07-29T08:27:42;100189.72;;;19.62;98.70
818;BME280;391;51.052;6.954;2023-07-29T08:29:46;100183.94;;;19.88;98.90
818;BME280;391;51.052;6.954;2023-07-29T08:31:49;100196.88;;;20.04;98.63
818;BME280;391;51.052;6.954;2023-07-29T08:33:55;100181.09;;;20.00;96.73
818;BME280;391;51.052;6.954;2023-07-29T08:35:58;100189.91;;;20.00;94.23
818;BME280;391;51.052;6.954;2023-07-29T08:38:02;100193.56;;;19.92;93.60
818;BME280;391;51.052;6.954;2023-07-29T08:40:07;100187.22;;;20.02;92.13
818;BME280;391;51.052;6.954;2023-07-29T08:42:11;100198.56;;;20.10;90.79
818;BME280;391;51.052;6.954;2023-07-29T08:44:20;100200.03;;;20.25;89.85
818;BME280;391;51.052;6.954;2023-07-29T08:46:25;100195.91;;;20.08;88.85
818;BME280;391;51.052;6.954;2023-07-29T08:48:32;100200.28;;;20.11;89.94
818;BME280;391;51.052;6.954;2023-07-29T08:50:37;100204.56;;;20.17;89.57
818;BME280;391;51.052;6.954;2023-07-29T08:52:41;100212.38;;;20.26;89.65
818;BME280;391;51.052;6.954;2023-07-29T08:54:47;100205.50;;;20.16;86.47
818;BME280;391;51.052;6.954;2023-07-29T08:56:50;100211.69;;;20.15;85.99
818;BME280;391;51.052;6.954;2023-07-29T08:58:54;100137.41;;;19.76;86.13
818;BME280;391;51.052;6.954;2023-07-29T09:00:58;100206.28;;;20.21;87.29
818;BME280;391;51.052;6.954;2023-07-29T09:03:02;100203.63;;;20.21;86.21
818;BME280;391;51.052;6.954;2023-07-29T09:05:09;100202.91;;;20.13;85.46
818;BME280;391;51.052;6.954;2023-07-29T09:07:17;100206.56;;;20.05;86.19
818;BME280;391;51.052;6.954;2023-07-29T09:09:21;100207.41;;;20.07;86.31
818;BME280;391;51.052;6.954;2023-07-29T09:11:25;100198.63;;;20.05;86.82
818;BME280;391;51.052;6.954;2023-07-29T09:13:29;100210.09;;;20.06;87.03
818;BME280;391;51.052;6.954;2023-07-29T09:15:33;100211.81;;;20.08;86.97
818;BME280;391;51.052;6.954;2023-07-29T09:17:36;100220.50;;;20.15;86.21
818;BME280;391;51.052;6.954;2023-07-29T09:19:39;100223.09;;;20.18;86.71
818;BME280;391;51.052;6.954;2023-07-29T09:21:42;100222.22;;;20.18;86.11
818;BME280;391;51.052;6.954;2023-07-29T09:23:50;100222.97;;;20.24;85.87
818;BME280;391;51.052;6.954;2023-07-29T09:26:00;100216.59;;;20.36;86.25
818;BME280;391;51.052;6.954;2023-07-29T09:28:08;100215.69;;;20.38;86.72
818;BME280;391;51.052;6.954;2023-07-29T09:30:15;100201.84;;;20.23;87.01
818;BME280;391;51.052;6.954;2023-07-29T09:32:20;100212.25;;;20.33;87.71
818;BME280;391;51.052;6.954;2023-07-29T09:34:24;100215.69;;;20.38;87.34
818;BME280;391;51.052;6.954;2023-07-29T09:36:27;100210.91;;;20.57;87.02
818;BME280;391;51.052;6.954;2023-07-29T09:38:34;100211.72;;;20.61;86.96
818;BME280;391;51.052;6.954;2023-07-29T09:40:40;100204.53;;;20.66;86.94
818;BME280;391;51.052;6.954;2023-07-29T09:42:50;100211.34;;;20.77;86.24
818;BME280;391;51.052;6.954;2023-07-29T09:44:54;100205.13;;;20.78;84.74
818;BME280;391;51.052;6.954;2023-07-29T09:46:58;100209.63;;;20.76;86.36
818;BME280;391;51.052;6.954;2023-07-29T09:49:02;100135.44;;;20.35;86.07
818;BME280;391;51.052;6.954;2023-07-29T09:51:10;100203.38;;;20.77;85.47
818;BME280;391;51.052;6.954;2023-07-29T09:53:14;100217.38;;;20.85;83.16
818;BME280;391;51.052;6.954;2023-07-29T09:55:18;100208.59;;;20.82;82.94
818;BME280;391;51.052;6.954;2023-07-29T09:57:23;100212.41;;;20.70;82.66
818;BME280;391;51.052;6.954;2023-07-29T09:59:27;100214.13;;;20.71;83.92
818;BME280;391;51.052;6.954;2023-07-29T10:01:30;100212.31;;;20.73;84.93
818;BME280;391;51.052;6.954;2023-07-29T10:03:35;100213.06;;;20.80;83.14
818;BME280;391;51.052;6.954;2023-07-29T10:05:39;100210.38;;;20.81;83.29
818;BME280;391;51.052;6.954;2023-07-29T10:07:43;100216.41;;;20.89;83.00
818;BME280;391;51.052;6.954;2023-07-29T10:09:49;100212.75;;;20.95;81.50
818;BME280;391;51.052;6.954;2023-07-29T10:11:54;100224.03;;;21.03;83.31
818;BME280;391;51.052;6.954;2023-07-29T10:14:00;100211.72;;;21.00;82.33
818;BME280;391;51.052;6.954;2023-07-29T10:16:11;100210.91;;;20.98;82.01
818;BME280;391;51.052;6.954;2023-07-29T10:18:15;100221.63;;;20.92;82.05
818;BME280;391;51.052;6.954;2023-07-29T10:20:19;100220.91;;;20.86;82.94
818;BME280;391;51.052;6.954;2023-07-29T10:22:25;100225.69;;;21.10;84.17
818;BME280;391;51.052;6.954;2023-07-29T10:24:32;100224.16;;;20.98;82.73
818;BME280;391;51.052;6.954;2023-07-29T10:26:37;100225.38;;;20.82;82.34
818;BME280;391;51.052;6.954;2023-07-29T10:28:47;100225.59;;;20.72;84.04
818;BME280;391;51.052;6.954;2023-07-29T10:30:52;100224.09;;;20.60;84.01
818;BME280;391;51.052;6.954;2023-07-29T10:32:58;100221.69;;;20.48;85.76
818;BME280;391;51.052;6.954;2023-07-29T10:35:02;100225.31;;;20.42;87.48
818;BME280;391;51.052;6.954;2023-07-29T10:37:07;100223.59;;;20.40;89.16
818;BME280;391;51.052;6.954;2023-07-29T10:39:11;100216.66;;;20.33;90.24
818;BME280;391;51.052;6.954;2023-07-29T10:41:15;100233.38;;;20.36;90.01
818;BME280;391;51.052;6.954;2023-07-29T10:43:19;100229.13;;;20.29;88.82
818;BME280;391;51.052;6.954;2023-07-29T10:45:36;100232.75;;;20.22;90.27
818;BME280;391;51.052;6.954;2023-07-29T10:47:41;100232.78;;;20.19;91.62
818;BME280;391;51.052;6.954;2023-07-29T10:49:46;100231.94;;;20.17;91.38
818;BME280;391;51.052;6.954;2023-07-29T10:51:49;100216.00;;;20.20;90.87
818;BME280;391;51.052;6.954;2023-07-29T10:53:56;100220.44;;;20.18;91.00
818;BME280;391;51.052;6.954;2023-07-29T10:56:00;100219.44;;;20.24;90.35
818;BME280;391;51.052;6.954;2023-07-29T10:58:12;100223.81;;;20.29;90.02
818;BME280;391;51.052;6.954;2023-07-29T11:00:19;100228.94;;;20.38;89.78
818;BME280;391;51.052;6.954;2023-07-29T11:02:29;100200.00;;;20.28;89.64
818;BME280;391;51.052;6.954;2023-07-29T11:04:46;100218.16;;;20.46;89.30
818;BME280;391;51.052;6.954;2023-07-29T11:07:23;100219.84;;;20.51;89.23
818;BME280;391;51.052;6.954;2023-07-29T11:09:39;100214.44;;;20.57;90.07
818;BME280;391;51.052;6.954;2023-07-29T11:11:43;100181.84;;;20.52;89.37
818;BME280;391;51.052;6.954;2023-07-29T11:13:46;100211.34;;;20.77;88.77
818;BME280;391;51.052;6.954;2023-07-29T11:15:50;100188.22;;;20.84;86.85
818;BME280;391;51.052;6.954;2023-07-29T11:17:56;100208.19;;;21.00;85.38
818;BME280;391;51.052;6.954;2023-07-29T11:20:02;100213.75;;;20.89;86.12
818;BME280;391;51.052;6.954;2023-07-29T11:22:06;100213.75;;;20.89;86.52